createdAt,value
2018-03-06T00:00:13.669Z,16.8
2018-03-06T00:01:13.324Z,16.3
2018-03-06T00:02:13.141Z,16.7
2018-03-06T00:04:13.444Z,16.7
2018-03-06T00:05:13.742Z,16.5
2018-03-06T00:09:15.223Z,17.8
2018-03-06T00:10:15.344Z,17.7
2018-03-06T00:11:15.848Z,16.9
2018-03-06T00:12:15.928Z,17.2
2018-03-06T00:14:13.986Z,16.8
2018-03-06T00:17:13.411Z,17.6
2018-03-06T00:19:15.476Z,17.9
2018-03-06T00:20:19.407Z,18.1
2018-03-06T00:21:15.653Z,18.4
2018-03-06T00:24:13.923Z,18.4
2018-03-06T00:25:13.708Z,16.8
2018-03-06T00:26:13.620Z,18.0
2018-03-06T00:27:13.327Z,18.0
2018-03-06T00:28:13.750Z,18.4
2018-03-06T00:30:13.776Z,17.5
2018-03-06T00:35:13.593Z,18.0
2018-03-06T00:36:13.716Z,17.7
2018-03-06T00:37:13.887Z,18.1
2018-03-06T00:38:13.313Z,18.5
2018-03-06T00:40:13.816Z,18.4
2018-03-06T00:41:13.309Z,18.5
2018-03-06T00:42:13.207Z,17.9
2018-03-06T00:45:13.383Z,18.2
2018-03-06T00:47:13.260Z,18.8
2018-03-06T00:48:13.257Z,18.9
2018-03-06T00:50:13.606Z,18.6
2018-03-06T00:51:13.426Z,18.5
2018-03-06T00:52:13.511Z,18.6
2018-03-06T00:53:13.295Z,19.2
2018-03-06T00:55:13.488Z,18.3
2018-03-06T00:56:13.263Z,17.9
2018-03-06T00:59:13.508Z,18.3
2018-03-06T01:00:13.254Z,18.2
2018-03-06T01:01:13.569Z,18.6
2018-03-06T01:02:13.661Z,18.0
2018-03-06T01:03:13.546Z,18.1
2018-03-06T01:04:13.643Z,19.1
2018-03-06T01:05:13.710Z,18.4
2018-03-06T01:06:13.651Z,18.6
2018-03-06T01:09:13.834Z,18.2
2018-03-06T01:11:13.484Z,19.1
2018-03-06T01:12:13.691Z,18.9
2018-03-06T01:13:13.290Z,18.3
2018-03-06T01:14:13.570Z,19.1
2018-03-06T01:15:13.832Z,18.6
2018-03-06T01:16:13.353Z,18.7
2018-03-06T01:17:13.842Z,18.3
2018-03-06T01:19:13.792Z,18.6
2018-03-06T01:20:13.764Z,18.4
2018-03-06T01:23:13.836Z,19.1
2018-03-06T01:24:13.815Z,19.4
2018-03-06T01:25:13.327Z,19.4
2018-03-06T01:27:13.768Z,19.3
2018-03-06T01:29:13.781Z,20.0
2018-03-06T01:30:13.874Z,19.4
2018-03-06T01:31:13.836Z,18.2
2018-03-06T01:35:13.498Z,19.7
2018-03-06T01:36:13.397Z,20.1
2018-03-06T01:40:13.792Z,20.0
2018-03-06T01:41:13.859Z,20.5
2018-03-06T01:43:13.769Z,20.1
2018-03-06T01:44:13.415Z,19.7
2018-03-06T01:45:13.892Z,20.2
2018-03-06T01:46:13.225Z,19.9
2018-03-06T01:47:13.831Z,19.9
2018-03-06T01:48:13.348Z,19.1
2018-03-06T01:49:13.840Z,20.0
2018-03-06T01:52:13.551Z,19.3
2018-03-06T01:53:13.881Z,19.8
2018-03-06T01:54:13.676Z,20.1
2018-03-06T01:55:14.516Z,19.0
2018-03-06T01:56:13.563Z,19.2
2018-03-06T01:57:13.598Z,19.3
2018-03-06T02:00:13.410Z,18.6
2018-03-06T02:01:13.385Z,19.6
2018-03-06T02:02:14.045Z,19.4
2018-03-06T02:03:13.902Z,19.6
2018-03-06T02:04:13.451Z,20.1
2018-03-06T02:05:13.551Z,20.9
2018-03-06T02:06:13.870Z,19.5
2018-03-06T02:10:13.890Z,20.0
2018-03-06T02:11:13.623Z,20.0
2018-03-06T02:13:13.700Z,19.7
2018-03-06T02:14:13.871Z,19.0
2018-03-06T02:15:13.652Z,20.1
2018-03-06T02:16:13.727Z,20.7
2018-03-06T02:17:13.882Z,20.0
2018-03-06T02:19:13.906Z,19.3
2018-03-06T02:20:13.781Z,20.0
2018-03-06T02:23:13.905Z,20.1
2018-03-06T02:24:13.658Z,19.3
2018-03-06T02:25:13.986Z,20.8
2018-03-06T02:26:13.964Z,20.4
2018-03-06T02:27:13.631Z,19.5
2018-03-06T02:29:13.870Z,19.5
2018-03-06T02:30:13.982Z,19.9
2018-03-06T02:31:13.894Z,19.7
2018-03-06T02:32:13.712Z,20.3
2018-03-06T02:33:13.936Z,19.5
2018-03-06T02:34:13.726Z,19.6
2018-03-06T02:36:13.500Z,19.7
2018-03-06T02:37:13.681Z,20.3
2018-03-06T02:38:13.482Z,19.5
2018-03-06T02:39:13.672Z,19.8
2018-03-06T02:40:13.972Z,19.4
2018-03-06T02:41:13.392Z,20.2
2018-03-06T02:44:13.900Z,19.2
2018-03-06T02:45:13.468Z,20.3
2018-03-06T02:46:13.497Z,20.9
2018-03-06T02:47:13.799Z,20.6
2018-03-06T02:48:13.675Z,21.0
2018-03-06T02:50:13.484Z,20.2
2018-03-06T02:51:14.013Z,19.8
2018-03-06T02:52:13.942Z,20.1
2018-03-06T02:53:13.869Z,19.3
2018-03-06T02:54:13.667Z,19.9
2018-03-06T02:55:13.922Z,20.6
2018-03-06T02:56:13.958Z,19.5
2018-03-06T02:57:13.841Z,19.7
2018-03-06T02:59:13.833Z,20.5
2018-03-06T03:00:13.727Z,20.1
2018-03-06T03:01:13.584Z,20.8
2018-03-06T03:02:13.514Z,20.0
2018-03-06T03:03:13.369Z,20.5
2018-03-06T03:04:13.318Z,19.7
2018-03-06T03:05:13.556Z,20.0
2018-03-06T03:06:13.827Z,19.8
2018-03-06T03:07:13.804Z,20.8
2018-03-06T03:10:13.821Z,19.9
2018-03-06T03:11:13.359Z,19.4
2018-03-06T03:12:13.365Z,19.5
2018-03-06T03:13:13.812Z,19.4
2018-03-06T03:16:13.530Z,19.7
2018-03-06T03:17:14.046Z,19.7
2018-03-06T03:18:13.572Z,19.9
2018-03-06T03:19:13.987Z,18.8
2018-03-06T03:22:13.786Z,19.2
2018-03-06T03:23:13.817Z,19.4
2018-03-06T03:24:13.541Z,19.1
2018-03-06T03:25:13.862Z,20.0
2018-03-06T03:26:13.534Z,19.3
2018-03-06T03:27:13.949Z,20.3
2018-03-06T03:28:13.676Z,19.2
2018-03-06T03:29:14.041Z,19.8
2018-03-06T03:31:14.064Z,19.9
2018-03-06T03:32:14.036Z,18.9
2018-03-06T03:33:13.874Z,19.2
2018-03-06T03:34:13.590Z,20.0
2018-03-06T03:35:14.011Z,20.2
2018-03-06T03:36:13.778Z,19.4
2018-03-06T03:37:13.823Z,19.4
2018-03-06T03:38:13.750Z,19.2
2018-03-06T03:39:14.011Z,19.9
2018-03-06T03:40:13.775Z,19.3
2018-03-06T03:41:13.802Z,20.0
2018-03-06T03:42:13.621Z,19.9
2018-03-06T03:43:14.113Z,20.1
2018-03-06T03:44:14.074Z,20.4
2018-03-06T03:45:13.792Z,20.2
2018-03-06T03:46:14.096Z,20.1
2018-03-06T03:47:14.029Z,20.3
2018-03-06T03:48:14.000Z,20.6
2018-03-06T03:49:13.812Z,19.8
2018-03-06T03:50:14.019Z,20.5
2018-03-06T03:51:13.693Z,19.1
2018-03-06T03:52:13.786Z,20.2
2018-03-06T03:53:13.835Z,19.2
2018-03-06T03:54:14.105Z,19.4
2018-03-06T03:56:13.608Z,20.1
2018-03-06T03:57:14.071Z,19.7
2018-03-06T03:58:13.585Z,20.1
2018-03-06T03:59:13.926Z,20.0
2018-03-06T04:00:14.130Z,19.5
2018-03-06T04:01:13.880Z,19.8
2018-03-06T04:03:14.161Z,19.9
2018-03-06T04:04:13.650Z,19.8
2018-03-06T04:05:13.910Z,19.4
2018-03-06T04:06:14.128Z,20.1
2018-03-06T04:07:13.905Z,19.0
2018-03-06T04:08:13.661Z,20.1
2018-03-06T04:09:13.816Z,20.7
2018-03-06T04:10:14.249Z,19.5
2018-03-06T04:11:14.519Z,20.0
2018-03-06T04:12:14.098Z,19.3
2018-03-06T04:13:13.609Z,19.9
2018-03-06T04:15:13.688Z,20.0
2018-03-06T04:17:13.660Z,19.8
2018-03-06T04:18:14.075Z,20.4
2018-03-06T04:19:13.602Z,20.5
2018-03-06T04:20:13.665Z,19.9
2018-03-06T04:21:13.864Z,20.2
2018-03-06T04:22:13.764Z,19.6
2018-03-06T04:23:13.646Z,20.2
2018-03-06T04:24:14.068Z,20.0
2018-03-06T04:25:13.653Z,20.0
2018-03-06T04:26:14.098Z,19.8
2018-03-06T04:27:13.920Z,20.2
2018-03-06T04:28:13.729Z,20.1
2018-03-06T04:29:13.749Z,20.4
2018-03-06T04:30:13.718Z,19.6
2018-03-06T04:32:13.898Z,20.0
2018-03-06T04:33:14.228Z,19.9
2018-03-06T04:34:14.138Z,20.6
2018-03-06T04:35:13.800Z,20.3
2018-03-06T04:36:14.143Z,20.0
2018-03-06T04:37:13.971Z,20.0
2018-03-06T04:38:13.852Z,20.3
2018-03-06T04:39:13.968Z,20.4
2018-03-06T04:41:14.177Z,19.4
2018-03-06T04:43:14.106Z,19.6
2018-03-06T04:44:14.260Z,20.0
2018-03-06T04:45:14.121Z,19.9
2018-03-06T04:46:14.161Z,19.8
2018-03-06T04:47:13.766Z,19.5
2018-03-06T04:48:14.213Z,20.4
2018-03-06T04:49:14.263Z,20.2
2018-03-06T04:50:13.718Z,19.2
2018-03-06T04:51:13.931Z,19.7
2018-03-06T04:52:13.945Z,19.3
2018-03-06T04:53:13.767Z,19.7
2018-03-06T04:54:14.177Z,19.5
2018-03-06T04:55:13.913Z,19.5
2018-03-06T04:56:13.893Z,20.0
2018-03-06T04:57:13.897Z,19.8
2018-03-06T04:58:14.093Z,19.7
2018-03-06T04:59:13.987Z,20.3
2018-03-06T05:00:14.124Z,19.9
2018-03-06T05:01:14.302Z,20.1
2018-03-06T05:03:13.969Z,19.4
2018-03-06T05:05:14.274Z,19.7
2018-03-06T05:06:13.926Z,19.8
2018-03-06T05:07:14.245Z,20.0
2018-03-06T05:08:14.514Z,19.6
2018-03-06T05:09:17.010Z,19.9
2018-03-06T05:10:25.044Z,19.7
2018-03-06T05:11:14.989Z,20.1
2018-03-06T05:12:14.756Z,19.6
2018-03-06T05:15:27.086Z,20.2
2018-03-06T05:16:18.150Z,20.3
2018-03-06T05:17:14.356Z,19.2
2018-03-06T05:18:14.265Z,19.4
2018-03-06T05:19:14.213Z,19.8
2018-03-06T05:20:13.875Z,20.1
2018-03-06T05:21:14.285Z,19.7
2018-03-06T05:22:13.799Z,19.2
2018-03-06T05:23:13.779Z,20.1
2018-03-06T05:24:14.201Z,20.0
2018-03-06T05:25:14.224Z,20.0
2018-03-06T05:26:14.070Z,19.4
2018-03-06T05:27:14.341Z,20.0
2018-03-06T05:28:13.987Z,19.1
2018-03-06T05:29:14.296Z,20.0
2018-03-06T05:30:14.314Z,20.2
2018-03-06T05:31:14.073Z,19.8
2018-03-06T05:32:13.982Z,19.4
2018-03-06T05:33:14.292Z,20.4
2018-03-06T05:35:14.082Z,19.4
2018-03-06T05:36:13.767Z,20.0
2018-03-06T05:37:14.260Z,20.1
2018-03-06T05:38:13.835Z,19.7
2018-03-06T05:39:14.291Z,19.7
2018-03-06T05:40:14.008Z,20.1
2018-03-06T05:41:14.072Z,19.8
2018-03-06T05:42:13.755Z,19.2
2018-03-06T05:43:13.985Z,19.9
2018-03-06T05:44:14.343Z,19.6
2018-03-06T05:45:14.219Z,20.9
2018-03-06T05:46:13.877Z,19.7
2018-03-06T05:47:14.254Z,20.1
2018-03-06T05:48:13.833Z,20.2
2018-03-06T05:49:14.398Z,19.5
2018-03-06T05:50:14.341Z,19.6
2018-03-06T05:52:14.231Z,20.2
2018-03-06T05:53:14.260Z,19.5
2018-03-06T05:54:14.006Z,19.9
2018-03-06T05:55:14.241Z,19.7
2018-03-06T05:58:13.884Z,19.5
2018-03-06T05:59:14.268Z,19.9
2018-03-06T06:01:14.336Z,19.1
2018-03-06T06:02:14.291Z,20.0
2018-03-06T06:03:14.349Z,20.0
2018-03-06T06:04:14.340Z,19.7
2018-03-06T06:05:13.876Z,19.7
2018-03-06T06:06:14.349Z,19.0
2018-03-06T06:07:13.968Z,19.1
2018-03-06T06:08:14.274Z,18.8
2018-03-06T06:11:14.340Z,20.5
2018-03-06T06:12:14.398Z,19.8
2018-03-06T06:13:13.985Z,20.1
2018-03-06T06:14:14.301Z,19.6
2018-03-06T06:15:14.064Z,19.2
2018-03-06T06:16:14.363Z,19.6
2018-03-06T06:17:14.403Z,18.8
2018-03-06T06:18:13.912Z,20.3
2018-03-06T06:19:14.079Z,19.7
2018-03-06T06:20:14.112Z,19.6
2018-03-06T06:21:13.954Z,19.8
2018-03-06T06:22:14.138Z,20.3
2018-03-06T06:23:13.845Z,18.8
2018-03-06T06:24:14.054Z,19.4
2018-03-06T06:25:13.938Z,19.7
2018-03-06T06:26:14.510Z,19.9
2018-03-06T06:27:14.376Z,18.8
2018-03-06T06:28:14.218Z,19.4
2018-03-06T06:29:14.235Z,19.6
2018-03-06T06:30:14.102Z,19.2
2018-03-06T06:31:13.889Z,20.2
2018-03-06T06:32:14.198Z,19.9
2018-03-06T06:33:14.136Z,19.3
2018-03-06T06:34:13.724Z,19.8
2018-03-06T06:35:14.051Z,19.8
2018-03-06T06:36:13.794Z,19.6
2018-03-06T06:37:14.280Z,20.2
2018-03-06T06:38:13.951Z,20.3
2018-03-06T06:39:14.426Z,21.2
2018-03-06T06:40:14.192Z,21.8
2018-03-06T06:41:13.949Z,21.7
2018-03-06T06:42:14.298Z,21.9
2018-03-06T06:43:14.258Z,21.6
2018-03-06T06:44:13.879Z,21.8
2018-03-06T06:47:13.877Z,21.4
2018-03-06T06:48:13.866Z,20.9
2018-03-06T06:49:14.249Z,21.2
2018-03-06T06:50:13.942Z,21.2
2018-03-06T06:51:14.319Z,21.4
2018-03-06T06:52:14.292Z,21.6
2018-03-06T06:53:14.582Z,22.0
2018-03-06T06:54:15.000Z,21.2
2018-03-06T06:55:14.306Z,20.6
2018-03-06T06:56:14.043Z,21.0
2018-03-06T06:57:14.268Z,21.6
2018-03-06T06:58:14.203Z,21.3
2018-03-06T06:59:13.993Z,20.9
2018-03-06T07:00:14.241Z,20.3
2018-03-06T07:02:14.003Z,21.7
2018-03-06T07:03:14.254Z,21.4
2018-03-06T07:04:14.300Z,21.7
2018-03-06T07:05:13.864Z,22.2
2018-03-06T07:06:14.015Z,22.0
2018-03-06T07:07:14.037Z,21.3
2018-03-06T07:08:14.093Z,21.4
2018-03-06T07:10:13.839Z,21.3
2018-03-06T07:11:14.336Z,21.4
2018-03-06T07:12:14.395Z,21.1
2018-03-06T07:13:14.253Z,21.5
2018-03-06T07:14:14.314Z,20.4
2018-03-06T07:15:14.107Z,21.1
2018-03-06T07:16:13.895Z,20.4
2018-03-06T07:17:13.844Z,22.3
2018-03-06T07:18:14.010Z,21.8
2018-03-06T07:19:14.327Z,22.3
2018-03-06T07:20:13.920Z,22.0
2018-03-06T07:22:14.259Z,21.8
2018-03-06T07:23:14.255Z,21.7
2018-03-06T07:24:14.317Z,21.6
2018-03-06T07:25:14.279Z,21.6
2018-03-06T07:26:14.175Z,21.6
2018-03-06T07:27:14.302Z,21.6
2018-03-06T07:28:13.807Z,21.7
2018-03-06T07:29:13.862Z,21.5
2018-03-06T07:30:14.276Z,21.6
2018-03-06T07:31:14.229Z,21.2
2018-03-06T07:32:14.058Z,22.0
2018-03-06T07:33:14.366Z,21.7
2018-03-06T07:34:14.259Z,21.6
2018-03-06T07:35:14.246Z,21.7
2018-03-06T07:36:14.304Z,21.2
2018-03-06T07:37:14.309Z,22.2
2018-03-06T07:38:14.304Z,21.7
2018-03-06T07:39:14.272Z,21.8
2018-03-06T07:41:14.148Z,21.8
2018-03-06T07:44:14.363Z,21.5
2018-03-06T07:45:14.842Z,21.3
2018-03-06T07:47:14.361Z,21.6
2018-03-06T07:48:14.035Z,21.8
2018-03-06T07:49:14.163Z,21.5
2018-03-06T07:50:14.254Z,20.7
2018-03-06T07:51:13.920Z,20.9
2018-03-06T07:52:14.322Z,20.8
2018-03-06T07:54:13.909Z,38.0
2018-03-06T07:55:14.083Z,46.3
2018-03-06T07:56:13.912Z,47.2
2018-03-06T07:57:14.396Z,45.8
2018-03-06T07:58:14.320Z,43.5
2018-03-06T07:59:13.887Z,40.9
2018-03-06T08:00:13.856Z,41.2
2018-03-06T08:01:14.271Z,39.8
2018-03-06T08:03:14.152Z,37.3
2018-03-06T08:04:14.409Z,36.8
2018-03-06T08:05:14.382Z,36.8
2018-03-06T08:06:14.349Z,35.4
2018-03-06T08:09:14.324Z,34.5
2018-03-06T08:10:14.140Z,34.0
2018-03-06T08:11:14.578Z,34.7
2018-03-06T08:12:14.377Z,34.5
2018-03-06T08:13:14.094Z,33.7
2018-03-06T08:14:14.418Z,33.7
2018-03-06T08:15:14.121Z,33.0
2018-03-06T08:16:14.304Z,32.5
2018-03-06T08:17:14.305Z,31.3
2018-03-06T08:18:14.341Z,33.2
2018-03-06T08:20:14.322Z,31.7
2018-03-06T08:21:13.939Z,31.8
2018-03-06T08:22:14.326Z,31.4
2018-03-06T08:24:14.345Z,29.9
2018-03-06T08:25:14.398Z,30.5
2018-03-06T08:26:38.217Z,30.8
2018-03-06T08:27:13.973Z,30.2
2018-03-06T08:28:13.934Z,29.9
2018-03-06T08:30:14.394Z,30.8
2018-03-06T08:31:13.973Z,30.4
2018-03-06T08:32:14.398Z,29.8
2018-03-06T08:33:14.357Z,29.7
2018-03-06T08:34:14.535Z,28.9
2018-03-06T08:35:14.407Z,28.9
2018-03-06T08:37:14.145Z,29.0
2018-03-06T08:38:14.117Z,28.9
2018-03-06T08:39:14.188Z,28.6
2018-03-06T08:40:14.248Z,28.3
2018-03-06T08:41:14.151Z,29.4
2018-03-06T08:42:14.256Z,28.0
2018-03-06T08:43:14.475Z,27.7
2018-03-06T08:44:14.128Z,26.9
2018-03-06T08:45:14.388Z,27.7
2018-03-06T08:46:14.398Z,27.9
2018-03-06T08:48:14.136Z,27.1
2018-03-06T08:49:14.247Z,27.3
2018-03-06T08:50:14.449Z,27.2
2018-03-06T08:51:14.401Z,27.3
2018-03-06T08:52:14.128Z,27.4
2018-03-06T08:53:14.387Z,25.9
2018-03-06T08:54:14.444Z,26.4
2018-03-06T08:55:14.479Z,26.8
2018-03-06T08:56:14.144Z,26.7
2018-03-06T08:57:14.460Z,26.0
2018-03-06T08:58:14.420Z,26.6
2018-03-06T08:59:14.215Z,26.7
2018-03-06T09:00:14.472Z,26.6
2018-03-06T09:01:14.194Z,25.8
2018-03-06T09:02:14.493Z,25.9
2018-03-06T09:03:14.297Z,26.2
2018-03-06T09:05:14.217Z,26.0
2018-03-06T09:06:14.190Z,25.2
2018-03-06T09:07:14.160Z,25.9
2018-03-06T09:09:14.500Z,25.5
2018-03-06T09:10:14.171Z,25.9
2018-03-06T09:11:14.497Z,25.2
2018-03-06T09:12:14.224Z,25.4
2018-03-06T09:13:14.171Z,25.0
2018-03-06T09:14:14.470Z,24.8
2018-03-06T09:15:14.225Z,25.6
2018-03-06T09:16:14.192Z,24.4
2018-03-06T09:17:14.483Z,24.7
2018-03-06T09:18:14.447Z,24.7
2018-03-06T09:19:14.459Z,24.6
2018-03-06T09:20:14.506Z,24.0
2018-03-06T09:22:14.487Z,24.2
2018-03-06T09:23:14.461Z,24.3
2018-03-06T09:24:14.527Z,24.1
2018-03-06T09:25:14.470Z,23.6
2018-03-06T09:26:14.209Z,24.6
2018-03-06T09:28:14.481Z,22.9
2018-03-06T09:29:14.204Z,23.3
2018-03-06T09:30:14.261Z,24.2
2018-03-06T09:31:14.214Z,24.6
2018-03-06T09:37:43.629Z,22.8
2018-03-06T09:38:43.612Z,22.6
2018-03-06T09:39:43.629Z,23.3
2018-03-06T09:40:43.361Z,23.1
2018-03-06T09:41:43.604Z,23.2
2018-03-06T09:42:43.608Z,22.6
2018-03-06T09:43:43.515Z,22.8
2018-03-06T09:44:43.325Z,23.7
2018-03-06T09:45:43.711Z,22.1
2018-03-06T09:46:48.018Z,21.7
2018-03-06T09:47:44.055Z,23.2
2018-03-06T09:48:43.525Z,22.7
2018-03-06T09:49:43.772Z,22.6
2018-03-06T09:50:55.881Z,22.2
2018-03-06T09:51:43.646Z,22.7
2018-03-06T09:52:43.618Z,21.7
2018-03-06T09:53:43.375Z,22.8
2018-03-06T09:54:43.607Z,22.2
2018-03-06T09:55:43.361Z,22.3
2018-03-06T09:56:43.651Z,22.2
2018-03-06T09:57:43.698Z,21.8
2018-03-06T09:58:43.375Z,22.2
2018-03-06T09:59:43.322Z,22.4
2018-03-06T10:00:43.647Z,21.8
2018-03-06T10:01:43.381Z,21.6
2018-03-06T10:02:43.644Z,21.9
2018-03-06T10:04:43.630Z,21.5
2018-03-06T10:05:43.650Z,21.5
2018-03-06T10:06:43.686Z,22.2
2018-03-06T10:07:43.658Z,21.4
2018-03-06T10:08:46.743Z,22.2
2018-03-06T10:09:44.503Z,21.9
2018-03-06T10:10:43.783Z,21.5
2018-03-06T10:11:43.743Z,22.0
2018-03-06T10:12:43.783Z,21.2
2018-03-06T10:13:43.862Z,20.2
2018-03-06T10:14:43.687Z,20.9
2018-03-06T10:15:43.761Z,21.7
2018-03-06T10:17:44.099Z,21.3
2018-03-06T10:19:43.660Z,22.5
2018-03-06T10:20:48.071Z,22.3
2018-03-06T10:21:48.167Z,23.5
2018-03-06T10:22:46.210Z,22.7
2018-03-06T10:23:43.754Z,24.2
2018-03-06T10:24:43.915Z,24.1
2018-03-06T10:25:43.766Z,23.5
2018-03-06T10:26:43.703Z,23.4
2018-03-06T10:27:43.771Z,23.8
2018-03-06T10:28:43.728Z,24.1
2018-03-06T10:29:43.765Z,24.8
2018-03-06T10:31:43.701Z,24.4
2018-03-06T10:33:43.713Z,23.2
2018-03-06T10:34:43.709Z,24.6
2018-03-06T10:35:43.759Z,24.8
2018-03-06T10:36:43.730Z,23.9
2018-03-06T10:37:43.769Z,24.8
2018-03-06T10:38:43.772Z,24.6
2018-03-06T10:39:43.762Z,23.1
2018-03-06T10:40:43.787Z,25.1
2018-03-06T10:41:43.761Z,23.8
2018-03-06T10:42:43.692Z,23.6
2018-03-06T10:43:43.803Z,24.4
2018-03-06T10:44:43.725Z,23.5
2018-03-06T10:45:43.754Z,23.4
2018-03-06T10:46:43.716Z,23.6
2018-03-06T10:47:43.801Z,23.2
2018-03-06T10:48:43.731Z,22.9
2018-03-06T10:49:43.717Z,22.8
2018-03-06T10:50:43.745Z,23.1
2018-03-06T10:51:43.725Z,22.9
2018-03-06T10:52:43.752Z,22.4
2018-03-06T10:53:43.766Z,22.5
2018-03-06T10:54:43.770Z,22.3
2018-03-06T10:55:43.769Z,22.4
2018-03-06T10:56:43.737Z,21.6
2018-03-06T10:58:43.751Z,21.5
2018-03-06T10:59:43.791Z,21.2
2018-03-06T11:00:43.808Z,22.1
2018-03-06T11:01:43.854Z,21.2
2018-03-06T11:02:43.773Z,21.9
2018-03-06T11:03:43.809Z,22.2
2018-03-06T11:04:43.762Z,22.0
2018-03-06T11:05:43.455Z,21.5
2018-03-06T11:06:43.508Z,21.3
2018-03-06T11:07:43.817Z,21.3
2018-03-06T11:08:43.508Z,21.3
2018-03-06T11:09:43.795Z,20.8
2018-03-06T11:10:43.504Z,20.7
2018-03-06T11:11:43.491Z,20.8
2018-03-06T11:12:43.550Z,20.2
2018-03-06T11:13:43.512Z,20.6
2018-03-06T11:14:43.800Z,20.5
2018-03-06T11:16:43.785Z,20.4
2018-03-06T11:17:43.739Z,20.3
2018-03-06T11:18:43.767Z,20.3
2018-03-06T11:19:43.815Z,20.4
2018-03-06T11:20:43.777Z,20.2
2018-03-06T11:21:43.764Z,19.9
2018-03-06T11:22:43.521Z,20.0
2018-03-06T11:23:43.780Z,19.9
2018-03-06T11:24:43.827Z,19.8
2018-03-06T11:26:43.797Z,19.4
2018-03-06T11:27:43.802Z,19.6
2018-03-06T11:28:43.492Z,19.7
2018-03-06T11:29:43.785Z,19.7
2018-03-06T11:30:43.819Z,19.3
2018-03-06T11:32:43.841Z,19.4
2018-03-06T11:33:43.520Z,19.1
2018-03-06T11:34:43.788Z,19.4
2018-03-06T11:35:43.779Z,20.1
2018-03-06T11:36:43.787Z,19.9
2018-03-06T11:38:43.892Z,19.3
2018-03-06T11:39:43.530Z,19.0
2018-03-06T11:40:43.498Z,18.6
2018-03-06T11:41:43.849Z,18.6
2018-03-06T11:42:43.560Z,18.8
2018-03-06T11:43:43.545Z,18.7
2018-03-06T11:44:43.816Z,18.5
2018-03-06T11:45:43.580Z,18.4
2018-03-06T11:46:43.495Z,18.1
2018-03-06T11:47:43.590Z,18.9
2018-03-06T11:48:43.579Z,18.5
2018-03-06T11:49:43.591Z,18.7
2018-03-06T11:50:43.835Z,18.3
2018-03-06T11:51:43.874Z,18.6
2018-03-06T11:52:44.004Z,18.8
2018-03-06T11:53:43.935Z,18.1
2018-03-06T11:55:43.830Z,17.5
2018-03-06T11:56:43.553Z,18.2
2018-03-06T11:57:43.834Z,17.7
2018-03-06T11:58:43.852Z,18.1
2018-03-06T11:59:43.857Z,18.0
2018-03-06T12:00:43.584Z,18.2
2018-03-06T12:01:43.869Z,18.2
2018-03-06T12:02:43.588Z,18.7
2018-03-06T12:03:43.933Z,18.9
2018-03-06T12:04:43.905Z,19.5
2018-03-06T12:05:43.878Z,19.9
2018-03-06T12:06:43.626Z,20.8
2018-03-06T12:07:43.881Z,21.3
2018-03-06T12:08:43.634Z,22.0
2018-03-06T12:10:43.869Z,24.8
2018-03-06T12:11:43.875Z,25.2
2018-03-06T12:13:43.871Z,25.7
2018-03-06T12:14:43.749Z,25.3
2018-03-06T12:16:43.616Z,26.9
2018-03-06T12:17:43.873Z,25.2
2018-03-06T12:18:43.925Z,26.5
2018-03-06T12:19:43.578Z,26.3
2018-03-06T12:20:43.910Z,25.3
2018-03-06T12:21:43.887Z,26.0
2018-03-06T12:22:43.946Z,24.7
2018-03-06T12:23:43.902Z,25.7
2018-03-06T12:24:43.959Z,24.2
2018-03-06T12:25:43.652Z,23.5
2018-03-06T12:26:43.613Z,24.5
2018-03-06T12:27:43.621Z,25.4
2018-03-06T12:28:43.592Z,26.3
2018-03-06T12:29:43.892Z,26.0
2018-03-06T12:30:43.589Z,25.4
2018-03-06T12:31:43.603Z,26.0
2018-03-06T12:32:43.922Z,25.4
2018-03-06T12:34:43.937Z,25.5
2018-03-06T12:35:43.979Z,24.6
2018-03-06T12:36:43.859Z,24.3
2018-03-06T12:37:43.946Z,24.5
2018-03-06T12:38:43.633Z,24.7
2018-03-06T12:39:43.905Z,24.5
2018-03-06T12:42:43.655Z,24.7
2018-03-06T12:43:43.602Z,24.4
2018-03-06T12:44:43.951Z,24.7
2018-03-06T12:45:43.970Z,24.3
2018-03-06T12:46:43.971Z,24.3
2018-03-06T12:47:43.660Z,23.9
2018-03-06T12:48:44.017Z,24.3
2018-03-06T12:49:43.956Z,25.5
2018-03-06T12:50:43.739Z,24.5
2018-03-06T12:51:43.620Z,24.6
2018-03-06T12:52:43.806Z,24.6
2018-03-06T12:53:43.951Z,23.6
2018-03-06T12:54:44.000Z,24.2
2018-03-06T12:55:44.047Z,24.2
2018-03-06T12:56:44.008Z,23.9
2018-03-06T12:57:43.673Z,23.4
2018-03-06T12:58:43.643Z,24.2
2018-03-06T12:59:43.670Z,23.6
2018-03-06T13:01:43.927Z,23.6
2018-03-06T13:02:43.678Z,23.8
2018-03-06T13:03:43.934Z,24.2
2018-03-06T13:04:43.700Z,23.9
2018-03-06T13:06:43.716Z,23.3
2018-03-06T13:07:46.656Z,23.3
2018-03-06T13:08:43.715Z,23.9
2018-03-06T13:09:43.814Z,24.1
2018-03-06T13:10:43.771Z,23.9
2018-03-06T13:11:43.882Z,24.4
2018-03-06T13:12:45.261Z,23.9
2018-03-06T13:13:44.137Z,23.9
2018-03-06T13:14:43.813Z,23.6
2018-03-06T13:15:44.040Z,23.4
2018-03-06T13:16:43.804Z,23.9
2018-03-06T13:17:44.106Z,23.3
2018-03-06T13:18:43.762Z,23.4
2018-03-06T13:19:44.016Z,22.5
2018-03-06T13:20:43.783Z,22.0
2018-03-06T13:21:44.038Z,22.7
2018-03-06T13:24:43.803Z,22.1
2018-03-06T13:25:44.035Z,22.0
2018-03-06T13:26:43.799Z,22.1
2018-03-06T13:27:44.076Z,22.3
2018-03-06T13:29:44.200Z,21.5
2018-03-06T13:30:43.819Z,21.4
2018-03-06T13:31:44.113Z,20.7
2018-03-06T13:32:43.857Z,22.0
2018-03-06T13:33:44.068Z,21.2
2018-03-06T13:34:44.094Z,20.9
2018-03-06T13:35:44.078Z,20.5
2018-03-06T13:36:44.061Z,20.8
2018-03-06T13:37:43.869Z,20.5
2018-03-06T13:38:44.104Z,19.6
2018-03-06T13:39:44.125Z,20.5
2018-03-06T13:40:44.123Z,21.1
2018-03-06T13:41:44.076Z,20.8
2018-03-06T13:42:43.816Z,21.3
2018-03-06T13:43:43.876Z,21.4
2018-03-06T13:44:43.874Z,21.6
2018-03-06T13:45:44.126Z,22.1
2018-03-06T13:46:43.814Z,23.0
2018-03-06T13:47:44.062Z,23.1
2018-03-06T13:48:43.788Z,22.8
2018-03-06T13:49:43.843Z,22.6
2018-03-06T13:50:44.083Z,23.7
2018-03-06T13:51:44.166Z,23.8
2018-03-06T13:52:43.793Z,24.2
2018-03-06T13:53:43.826Z,23.6
2018-03-06T13:54:44.046Z,24.2
2018-03-06T13:55:44.094Z,23.9
2018-03-06T13:56:44.306Z,24.2
2018-03-06T13:57:44.138Z,23.7
2018-03-06T13:58:44.125Z,24.0
2018-03-06T13:59:43.869Z,24.8
2018-03-06T14:00:44.104Z,24.7
2018-03-06T14:01:43.856Z,24.7
2018-03-06T14:02:43.866Z,24.5
2018-03-06T14:03:43.809Z,25.3
2018-03-06T14:04:43.791Z,24.8
2018-03-06T14:05:44.062Z,24.6
2018-03-06T14:06:43.974Z,25.1
2018-03-06T14:08:44.161Z,26.5
2018-03-06T14:09:43.847Z,25.0
2018-03-06T14:10:43.861Z,25.0
2018-03-06T14:12:43.859Z,24.3
2018-03-06T14:13:43.993Z,24.2
2018-03-06T14:14:44.178Z,24.7
2018-03-06T14:15:44.094Z,24.1
2018-03-06T14:16:44.125Z,23.4
2018-03-06T14:17:43.847Z,23.9
2018-03-06T14:18:43.881Z,24.0
2018-03-06T14:19:44.208Z,23.2
2018-03-06T14:20:43.851Z,23.2
2018-03-06T14:21:43.860Z,23.0
2018-03-06T14:22:43.857Z,22.1
2018-03-06T14:23:44.132Z,22.2
2018-03-06T14:24:43.892Z,22.8
2018-03-06T14:25:43.879Z,22.7
2018-03-06T14:26:44.109Z,23.3
2018-03-06T14:27:43.846Z,23.1
2018-03-06T14:28:44.148Z,22.8
2018-03-06T14:29:44.211Z,24.2
2018-03-06T14:30:43.876Z,24.1
2018-03-06T14:31:43.889Z,24.8
2018-03-06T14:32:43.916Z,25.8
2018-03-06T14:33:43.857Z,25.9
2018-03-06T14:34:44.113Z,25.6
2018-03-06T14:35:44.129Z,25.0
2018-03-06T14:36:44.135Z,25.7
2018-03-06T14:37:44.168Z,24.0
2018-03-06T14:38:44.152Z,24.4
2018-03-06T14:39:43.915Z,23.7
2018-03-06T14:42:44.129Z,23.1
2018-03-06T14:43:44.259Z,23.2
2018-03-06T14:44:44.182Z,23.1
2018-03-06T14:45:44.173Z,22.8
2018-03-06T14:46:43.911Z,23.3
2018-03-06T14:47:44.155Z,23.1
2018-03-06T14:48:43.871Z,23.9
2018-03-06T14:49:44.198Z,22.3
2018-03-06T14:50:43.962Z,22.5
2018-03-06T14:51:44.159Z,22.5
2018-03-06T14:52:43.958Z,22.3
2018-03-06T14:53:44.144Z,22.2
2018-03-06T14:54:43.870Z,21.8
2018-03-06T14:55:43.945Z,21.7
2018-03-06T14:56:44.172Z,21.3
2018-03-06T14:57:44.198Z,21.7
2018-03-06T14:58:44.172Z,22.0
2018-03-06T14:59:43.926Z,20.7
2018-03-06T15:00:44.170Z,21.6
2018-03-06T15:01:43.945Z,21.1
2018-03-06T15:02:43.930Z,21.4
2018-03-06T15:03:43.907Z,21.4
2018-03-06T15:04:44.165Z,20.8
2018-03-06T15:05:44.250Z,22.0
2018-03-06T15:06:44.181Z,21.0
2018-03-06T15:07:43.949Z,21.7
2018-03-06T15:08:44.215Z,20.9
2018-03-06T15:09:43.957Z,21.8
2018-03-06T15:10:43.961Z,23.7
2018-03-06T15:11:44.313Z,23.4
2018-03-06T15:12:44.247Z,23.9
2018-03-06T15:13:44.226Z,24.0
2018-03-06T15:14:44.227Z,24.3
2018-03-06T15:15:44.228Z,24.2
2018-03-06T15:16:44.218Z,23.7
2018-03-06T15:17:44.316Z,23.6
2018-03-06T15:18:44.021Z,22.4
2018-03-06T15:19:43.999Z,22.3
2018-03-06T15:20:44.264Z,23.1
2018-03-06T15:21:43.938Z,22.2
2018-03-06T15:22:44.253Z,22.0
2018-03-06T15:23:44.053Z,22.7
2018-03-06T15:24:44.200Z,22.1
2018-03-06T15:25:44.273Z,22.1
2018-03-06T15:26:43.978Z,22.0
2018-03-06T15:27:44.269Z,22.3
2018-03-06T15:28:44.286Z,22.3
2018-03-06T15:29:44.013Z,21.5
2018-03-06T15:30:43.988Z,21.8
2018-03-06T15:31:44.344Z,21.8